Time;durP1;ratioP1;P1;durP2;ratioP2;P2;SDS_P1;SDS_P2;PMS_P1;PMS_P2;Temp;Humidity;BMP_temperature;BMP_pressure;BME280_temperature;BME280_humidity;BME280_pressure;Samples;Min_cycle;Max_cycle;Signal;HPM_P1;HPM_P2
2022/08/13 00:02:18;;;;;;;11.93;4.28;;;;;;;20.34;70.80;101277.13;5051061;28;20056;-79
2022/08/13 00:05:00;;;;;;;9.93;4.07;;;;;;;20.48;70.51;101281.09;5075997;28;20032;-80
2022/08/13 00:07:28;;;;;;;16.70;4.78;;;;;;;20.24;70.91;101271.75;5057544;28;20032;-78
2022/08/13 00:09:58;;;;;;;8.52;4.72;;;;;;;20.23;71.69;101283.03;5087596;28;20028;-79
2022/08/13 00:15:19;;;;;;;11.30;5.07;;;;;;;20.22;71.66;101284.97;5086415;28;20363;-79
2022/08/13 00:17:49;;;;;;;9.30;4.80;;;;;;;20.17;71.63;101276.28;5068296;28;20078;-78
2022/08/13 00:20:17;;;;;;;6.78;4.28;;;;;;;20.15;72.22;101278.34;5071484;28;20028;-79
2022/08/13 00:22:48;;;;;;;7.57;4.60;;;;;;;20.04;72.90;101274.03;5057517;28;20037;-79
2022/08/13 00:25:16;;;;;;;9.27;4.53;;;;;;;20.06;73.18;101288.59;5049400;28;20132;-79
2022/08/13 00:27:47;;;;;;;8.57;4.80;;;;;;;20.06;72.22;101277.50;5060854;28;20115;-81
2022/08/13 00:30:15;;;;;;;10.48;4.78;;;;;;;19.92;73.63;101284.63;5052987;28;20040;-81
2022/08/13 00:32:45;;;;;;;6.95;4.32;;;;;;;20.01;73.24;101269.66;5080228;28;20044;-80
2022/08/13 00:35:16;;;;;;;13.98;4.15;;;;;;;19.84;74.59;101270.72;5045381;28;20028;-79
2022/08/13 00:37:41;;;;;;;6.60;4.57;;;;;;;19.79;74.33;101264.78;5024017;28;20146;-79
2022/08/13 00:40:11;;;;;;;13.85;4.38;;;;;;;19.78;75.21;101272.25;5088863;28;20119;-80
2022/08/13 00:42:38;;;;;;;7.45;4.20;;;;;;;19.72;75.24;101277.59;5080691;28;20048;-80
2022/08/13 00:45:06;;;;;;;8.02;4.25;;;;;;;19.69;75.78;101280.72;5060604;28;20043;-80
2022/08/13 00:50:16;;;;;;;9.70;4.50;;;;;;;19.77;75.17;101278.84;5080336;28;20221;-79
2022/08/13 00:52:42;;;;;;;6.88;4.53;;;;;;;19.74;75.32;101267.19;5046325;28;20028;-80
2022/08/13 00:55:15;;;;;;;9.68;4.38;;;;;;;19.58;75.61;101268.91;5030255;28;20059;-80
2022/08/13 00:57:40;;;;;;;;;;;;;;;19.58;75.83;101288.34;5098572;28;20023;-80
2022/08/13 01:00:15;;;;;;;7.60;4.40;;;;;;;19.54;76.37;101275.81;5063922;28;20303;-80
2022/08/13 01:02:47;;;;;;;13.85;4.43;;;;;;;19.57;76.25;101285.75;5063759;28;20402;-79
2022/08/13 01:05:13;;;;;;;8.05;3.78;;;;;;;19.58;76.25;101282.78;5076630;28;20040;-80
2022/08/13 01:07:41;;;;;;;8.95;4.53;;;;;;;19.53;76.46;101287.09;5074028;28;20295;-79
2022/08/13 01:10:11;;;;;;;6.78;4.25;;;;;;;19.56;75.86;101282.09;5076118;28;20403;-79
2022/08/13 01:12:39;;;;;;;5.45;4.15;;;;;;;19.58;75.92;101284.72;5075851;28;20040;-78
2022/08/13 01:15:11;;;;;;;9.10;4.32;;;;;;;19.49;76.79;101285.72;5063171;28;20062;-80
2022/08/13 01:17:40;;;;;;;6.97;4.45;;;;;;;19.27;77.56;101283.41;5073269;28;20372;-80
2022/08/13 01:20:09;;;;;;;8.02;4.60;;;;;;;19.27;77.62;101285.31;5046946;28;20032;-79
2022/08/13 01:22:39;;;;;;;9.68;4.22;;;;;;;19.32;77.39;101290.38;5063971;28;20494;-79
2022/08/13 01:25:05;;;;;;;9.20;4.65;;;;;;;19.35;78.23;101279.78;5097934;28;22195;-79
2022/08/13 01:27:32;;;;;;;6.90;5.05;;;;;;;19.26;77.89;101289.13;5080156;28;20130;-79
2022/08/13 01:29:58;;;;;;;11.27;4.60;;;;;;;19.23;78.60;101275.56;5046814;28;20096;-79
2022/08/13 01:32:26;;;;;;;7.65;4.40;;;;;;;19.05;79.41;101282.09;5064457;28;20475;-78
2022/08/13 01:34:52;;;;;;;9.95;4.38;;;;;;;19.06;79.09;101288.53;5033187;28;20395;-79
2022/08/13 01:37:18;;;;;;;6.57;4.28;;;;;;;19.11;79.57;101291.66;5061983;28;20068;-79
2022/08/13 01:39:44;;;;;;;6.68;4.93;;;;;;;19.00;79.38;101294.72;5052845;28;20028;-79
2022/08/13 01:42:20;;;;;;;17.60;4.80;;;;;;;18.80;81.05;101291.31;5062636;28;20031;-79
2022/08/13 01:44:47;;;;;;;6.65;4.30;;;;;;;18.81;81.46;101290.28;5098524;28;20028;-80
2022/08/13 01:52:42;;;;;;;10.90;4.18;;;;;;;18.45;85.01;101282.94;5069898;28;20028;-80
2022/08/13 01:55:09;;;;;;;6.35;3.83;;;;;;;18.27;87.58;101285.75;5064348;28;20026;-80
2022/08/13 01:57:37;;;;;;;7.80;3.35;;;;;;;18.28;87.56;101281.97;5063801;28;20031;-80
2022/08/13 02:00:07;;;;;;;15.65;3.92;;;;;;;18.11;90.17;101280.94;5077277;28;20460;-79
2022/08/13 02:02:33;;;;;;;5.75;3.70;;;;;;;18.04;91.38;101279.84;5080235;28;20463;-79
2022/08/13 02:04:59;;;;;;;16.77;4.28;;;;;;;17.95;92.57;101275.25;5078264;28;20127;-81
2022/08/13 02:07:25;;;;;;;7.22;4.10;;;;;;;17.88;93.37;101271.41;5079658;28;20098;-79
2022/08/13 02:09:52;;;;;;;10.85;4.60;;;;;;;17.89;93.34;101278.66;5078557;28;20050;-80
2022/08/13 02:12:17;;;;;;;9.20;4.13;;;;;;;17.86;93.81;101281.75;5078528;28;20032;-79
2022/08/13 02:14:44;;;;;;;10.38;4.07;;;;;;;17.78;94.54;101279.75;5045101;28;20428;-81
2022/08/13 02:17:27;;;;;;;5.82;4.53;;;;;;;17.68;94.15;101277.06;5042760;28;20031;-79
2022/08/13 02:19:54;;;;;;;7.30;4.47;;;;;;;17.78;93.67;101274.22;5060871;28;20051;-80
2022/08/13 02:22:22;;;;;;;10.27;3.95;;;;;;;17.89;93.33;101276.78;5079871;28;20054;-80
2022/08/13 02:24:53;;;;;;;14.88;4.40;;;;;;;17.70;93.15;101271.38;5075012;28;20028;-79
2022/08/13 02:27:24;;;;;;;11.85;4.57;;;;;;;17.75;93.52;101285.59;5079399;28;20081;-79
2022/08/13 02:29:53;;;;;;;9.60;4.25;;;;;;;17.84;92.65;101281.91;5085474;28;20028;-79
2022/08/13 02:32:20;;;;;;;14.10;4.85;;;;;;;17.87;92.37;101289.91;5097380;28;20032;-79
2022/08/13 02:34:50;;;;;;;9.13;4.35;;;;;;;17.80;91.86;101281.31;5061516;28;20031;-79
2022/08/13 02:37:21;;;;;;;11.82;5.53;;;;;;;17.83;92.11;101282.91;5095876;28;20036;-80
2022/08/13 02:39:56;;;;;;;14.52;4.32;;;;;;;17.88;92.45;101285.25;5060956;28;20501;-80
2022/08/13 02:42:22;;;;;;;6.03;4.72;;;;;;;17.77;93.23;101283.53;5062584;28;20063;-80
2022/08/13 02:44:50;;;;;;;9.27;5.07;;;;;;;17.81;92.64;101285.84;5061280;28;20102;-81
2022/08/13 02:47:19;;;;;;;10.50;5.57;;;;;;;17.78;93.31;101286.16;5057809;28;20487;-80
2022/08/13 02:49:50;;;;;;;7.80;5.28;;;;;;;17.77;93.18;101272.47;5060655;28;20028;-80
2022/08/13 02:52:21;;;;;;;7.97;5.47;;;;;;;17.72;93.09;101275.69;5063206;28;20044;-80
2022/08/13 02:54:48;;;;;;;14.07;6.07;;;;;;;17.73;93.67;101283.00;5075219;28;20110;-80
2022/08/13 02:57:15;;;;;;;10.85;5.57;;;;;;;17.73;93.59;101283.00;5063406;28;20446;-79
2022/08/13 02:59:44;;;;;;;13.05;4.97;;;;;;;17.70;93.63;101276.91;5076874;28;20036;-78
2022/08/13 03:02:11;;;;;;;9.57;5.43;;;;;;;17.68;94.27;101276.19;5060731;28;20046;-79
2022/08/13 03:04:42;;;;;;;13.00;5.15;;;;;;;17.75;93.30;101286.47;5052485;28;20051;-80
2022/08/13 03:07:11;;;;;;;15.02;5.95;;;;;;;17.78;93.75;101280.63;5061499;28;20027;-81
2022/08/13 03:09:37;;;;;;;13.20;5.68;;;;;;;17.66;93.50;101276.34;5060904;28;20044;-81
2022/08/13 03:12:04;;;;;;;7.65;5.80;;;;;;;17.62;94.09;101278.53;5060879;28;20112;-80
2022/08/13 03:14:34;;;;;;;9.27;5.32;;;;;;;17.62;94.27;101284.09;5061377;28;20035;-79
2022/08/13 03:16:59;;;;;;;9.60;5.57;;;;;;;17.64;93.83;101281.16;5059570;28;20024;-80
2022/08/13 03:19:25;;;;;;;8.30;5.63;;;;;;;17.41;95.39;101275.22;5056493;28;20036;-79
2022/08/13 03:21:51;;;;;;;8.35;5.60;;;;;;;17.41;95.76;101281.63;5046235;28;20039;-80
2022/08/13 03:24:18;;;;;;;11.65;5.88;;;;;;;17.39;95.36;101278.13;5070238;28;20063;-79
2022/08/13 03:26:44;;;;;;;9.13;5.97;;;;;;;17.37;95.56;101268.25;5045003;28;20417;-79
2022/08/13 03:29:10;;;;;;;14.55;5.72;;;;;;;17.47;95.55;101276.50;5076770;28;20043;-80
2022/08/13 03:31:37;;;;;;;12.00;5.88;;;;;;;17.44;95.55;101277.66;5044401;28;20062;-79
2022/08/13 03:34:04;;;;;;;11.07;5.13;;;;;;;17.34;95.30;101280.50;5057646;28;20040;-80
2022/08/13 03:36:31;;;;;;;14.00;5.80;;;;;;;17.32;95.34;101290.84;5059744;28;20029;-79
2022/08/13 03:38:58;;;;;;;16.08;6.30;;;;;;;17.25;96.09;101285.06;5077730;28;20407;-80
2022/08/13 03:41:27;;;;;;;12.15;5.60;;;;;;;17.24;96.47;101282.47;5062841;28;20499;-79
2022/08/13 03:43:53;;;;;;;10.98;5.88;;;;;;;17.20;96.91;101286.53;5076614;28;20055;-79
2022/08/13 03:46:22;;;;;;;10.48;6.00;;;;;;;17.27;96.59;101280.25;5082748;28;20046;-79
2022/08/13 03:48:49;;;;;;;14.05;5.90;;;;;;;17.27;96.53;101277.47;5100041;28;20039;-79
2022/08/13 03:51:17;;;;;;;9.45;6.30;;;;;;;17.25;97.29;101284.22;5063960;28;20059;-79
2022/08/13 03:53:44;;;;;;;12.02;6.10;;;;;;;17.22;96.64;101282.63;5062394;28;20092;-79
2022/08/13 03:56:13;;;;;;;11.23;5.68;;;;;;;17.13;97.12;101274.38;5030940;28;20379;-79
2022/08/13 03:58:40;;;;;;;10.65;6.22;;;;;;;17.07;97.51;101282.25;5075636;28;20504;-80
2022/08/13 04:01:06;;;;;;;12.45;5.90;;;;;;;17.15;97.85;101283.38;5061371;28;20056;-80
2022/08/13 04:03:36;;;;;;;16.20;6.20;;;;;;;17.16;96.45;101274.06;5092284;28;20036;-79
2022/08/13 04:06:08;;;;;;;9.73;6.65;;;;;;;17.03;97.79;101280.81;5075104;28;20032;-81
2022/08/13 04:08:36;;;;;;;15.15;6.07;;;;;;;16.84;100.00;101280.88;5093766;28;20081;-80
2022/08/13 04:11:05;;;;;;;15.85;6.45;;;;;;;16.86;99.74;101271.44;5065165;28;20123;-80
2022/08/13 04:13:36;;;;;;;16.02;5.93;;;;;;;16.89;100.00;101281.34;5081450;28;20058;-80
2022/08/13 04:16:07;;;;;;;13.93;5.90;;;;;;;16.87;100.00;101287.03;5061644;28;20104;-81
2022/08/13 04:18:35;;;;;;;12.27;6.13;;;;;;;16.94;100.00;101287.28;5063155;28;20029;-80
2022/08/13 04:21:08;;;;;;;10.38;6.07;;;;;;;16.88;100.00;101283.22;5061945;28;20167;-80
2022/08/13 04:23:36;;;;;;;12.02;6.38;;;;;;;16.88;100.00;101285.13;5078812;28;20028;-80
2022/08/13 04:26:03;;;;;;;17.38;6.13;;;;;;;16.90;100.00;101285.81;5073142;28;20395;-82
2022/08/13 04:28:28;;;;;;;13.38;6.43;;;;;;;16.81;100.00;101284.81;5074363;28;20035;-79
2022/08/13 04:30:54;;;;;;;12.73;6.45;;;;;;;16.76;100.00;101284.41;5037813;28;20036;-79
2022/08/13 04:33:20;;;;;;;11.15;5.95;;;;;;;16.83;100.00;101285.53;5078489;28;20040;-79
2022/08/13 04:35:46;;;;;;;13.30;6.00;;;;;;;16.83;100.00;101291.06;5079809;28;20437;-80
2022/08/13 04:38:13;;;;;;;17.95;6.15;;;;;;;16.85;100.00;101283.50;5060462;28;20070;-77
2022/08/13 04:40:41;;;;;;;13.90;6.03;;;;;;;16.87;100.00;101294.44;5071723;28;20032;-80
2022/08/13 04:43:11;;;;;;;22.70;6.60;;;;;;;16.80;100.00;101290.50;5096282;28;20563;-80
2022/08/13 04:45:42;;;;;;;18.38;5.60;;;;;;;16.76;100.00;101289.06;5062912;28;20036;-79
2022/08/13 04:48:12;;;;;;;16.85;6.15;;;;;;;16.71;100.00;101292.28;5080675;28;20036;-80
2022/08/13 04:50:41;;;;;;;22.05;6.32;;;;;;;16.69;100.00;101289.69;5063974;28;20033;-80
2022/08/13 04:53:19;;;;;;;15.95;6.60;;;;;;;16.71;100.00;101295.91;5080489;28;20043;-80
2022/08/13 04:55:45;;;;;;;15.25;5.75;;;;;;;16.67;100.00;101283.41;5074940;28;20028;-79
2022/08/13 04:58:11;;;;;;;11.02;5.75;;;;;;;16.73;100.00;101296.63;5041588;28;20380;-77
2022/08/13 05:00:36;;;;;;;20.77;6.72;;;;;;;16.78;100.00;101298.09;5090518;28;20031;-76
2022/08/13 05:03:15;;;;;;;11.68;6.28;;;;;;;16.78;100.00;101290.66;5043584;28;20043;-77
2022/08/13 05:05:44;;;;;;;11.18;6.00;;;;;;;16.85;100.00;101293.72;5078191;28;20020;-78
2022/08/13 05:08:12;;;;;;;6.72;5.45;;;;;;;16.82;100.00;101296.75;5093752;28;20043;-78
2022/08/13 05:10:39;;;;;;;27.00;6.68;;;;;;;16.89;100.00;101304.31;5076648;28;20039;-78
2022/08/13 05:13:24;;;;;;;11.38;5.75;;;;;;;16.95;100.00;101297.31;5045067;28;20046;-77
2022/08/13 05:15:51;;;;;;;19.98;6.72;;;;;;;17.05;100.00;101311.09;5077815;28;20032;-77
2022/08/13 05:18:18;;;;;;;12.98;5.90;;;;;;;17.02;100.00;101308.63;5077920;28;20042;-77
2022/08/13 05:20:44;;;;;;;14.52;6.00;;;;;;;17.11;100.00;101310.50;5078100;28;20028;-78
2022/08/13 05:23:10;;;;;;;15.75;6.10;;;;;;;17.17;100.00;101304.34;5077325;28;20047;-76
2022/08/13 05:25:36;;;;;;;20.58;5.60;;;;;;;17.23;100.00;101305.63;5062291;28;20469;-77
2022/08/13 05:28:03;;;;;;;15.25;5.82;;;;;;;17.32;100.00;101306.59;5096283;28;20042;-76
2022/08/13 05:30:28;;;;;;;16.02;5.30;;;;;;;17.49;99.84;101302.13;5061521;28;20731;-76
2022/08/13 05:32:58;;;;;;;10.32;5.18;;;;;;;17.66;99.72;101306.81;5074930;28;20028;-76
2022/08/13 05:35:26;;;;;;;15.23;5.45;;;;;;;17.89;98.25;101311.91;5071311;28;20095;-76
2022/08/13 05:37:52;;;;;;;14.60;5.43;;;;;;;18.34;95.68;101302.59;5061341;28;20039;-77
2022/08/13 05:40:17;;;;;;;10.75;5.15;;;;;;;18.50;95.39;101308.28;5093853;28;20044;-76
2022/08/13 05:42:44;;;;;;;8.98;5.10;;;;;;;18.69;94.42;101307.19;5028035;28;20388;-76
2022/08/13 05:45:09;;;;;;;9.75;5.35;;;;;;;18.87;93.83;101301.63;5059689;28;20093;-76
2022/08/13 05:47:36;;;;;;;18.63;5.10;;;;;;;19.08;93.40;101301.19;5077465;28;20035;-77
2022/08/13 05:50:13;;;;;;;12.35;5.28;;;;;;;19.46;90.42;101298.91;5072218;28;20044;-76
2022/08/13 05:52:39;;;;;;;13.07;4.90;;;;;;;19.55;92.96;101302.56;5078930;28;20040;-77
2022/08/13 05:55:07;;;;;;;13.27;5.60;;;;;;;19.69;92.93;101300.16;5073739;28;20036;-76
2022/08/13 05:57:32;;;;;;;12.45;4.90;;;;;;;20.21;88.22;101299.91;5060950;28;20020;-75
2022/08/13 06:05:26;;;;;;;19.20;5.80;;;;;;;20.59;89.10;101316.03;5074389;28;20032;-76
2022/08/13 06:07:54;;;;;;;12.20;5.55;;;;;;;20.39;88.14;101308.94;5070012;28;20737;-79
2022/08/13 06:10:20;;;;;;;9.38;4.90;;;;;;;21.01;83.16;101309.38;5043988;28;20039;-77
2022/08/13 06:12:47;;;;;;;12.38;5.18;;;;;;;20.95;85.31;101316.50;5048683;28;20033;-77
2022/08/13 06:15:12;;;;;;;10.88;5.05;;;;;;;21.18;82.55;101315.75;5066420;28;20071;-76
2022/08/13 06:17:41;;;;;;;6.68;4.63;;;;;;;21.92;81.07;101312.59;5075166;28;20032;-77
2022/08/13 06:20:07;;;;;;;12.05;4.22;;;;;;;21.60;79.05;101300.59;5073996;28;20486;-77
2022/08/13 06:22:34;;;;;;;8.90;4.82;;;;;;;21.86;78.57;101305.84;5041335;28;20040;-77
2022/08/13 06:25:05;;;;;;;6.40;3.80;;;;;;;22.21;74.55;101309.91;5076393;28;20510;-77
2022/08/13 06:27:32;;;;;;;16.60;4.65;;;;;;;22.33;74.72;101302.00;5045097;28;20028;-76
2022/08/13 06:29:58;;;;;;;14.35;6.13;;;;;;;22.12;74.60;101307.38;5074737;28;20407;-77
2022/08/13 06:32:24;;;;;;;18.25;5.43;;;;;;;22.50;74.79;101313.88;5055264;28;20048;-78
2022/08/13 06:34:51;;;;;;;10.95;5.60;;;;;;;22.84;70.09;101312.50;5056312;28;20036;-76
2022/08/13 06:37:18;;;;;;;7.50;5.65;;;;;;;22.89;70.08;101315.59;5053596;28;20028;-77
2022/08/13 06:39:44;;;;;;;13.57;5.75;;;;;;;22.90;71.00;101319.22;5072871;28;20032;-78
2022/08/13 06:42:12;;;;;;;9.15;5.05;;;;;;;23.54;68.47;101318.63;5050488;28;20028;-77
2022/08/13 06:44:43;;;;;;;9.60;4.85;;;;;;;23.46;69.35;101314.03;5076819;28;20127;-77
2022/08/13 06:47:08;;;;;;;11.55;5.45;;;;;;;23.58;67.04;101325.59;5086400;28;20036;-77
2022/08/13 06:49:34;;;;;;;9.18;5.60;;;;;;;23.71;67.42;101315.59;5057970;28;20036;-77
2022/08/13 06:52:05;;;;;;;12.85;5.50;;;;;;;24.23;65.04;101322.88;5089459;28;20111;-78
2022/08/13 06:54:30;;;;;;;7.53;5.75;;;;;;;24.64;63.79;101315.72;5073306;28;20070;-77
2022/08/13 06:56:59;;;;;;;7.57;4.50;;;;;;;24.64;63.54;101313.78;5076256;28;20494;-78
2022/08/13 06:59:25;;;;;;;9.73;4.00;;;;;;;24.30;64.05;101323.81;5093288;28;20032;-78
2022/08/13 07:01:57;;;;;;;10.23;3.47;;;;;;;24.80;61.92;101315.41;5066659;28;20491;-76
2022/08/13 07:04:23;;;;;;;11.20;3.58;;;;;;;24.81;62.07;101319.97;5076111;28;20459;-76
2022/08/13 07:06:50;;;;;;;8.00;4.13;;;;;;;25.18;61.08;101325.34;5054906;28;20020;-77
2022/08/13 07:09:19;;;;;;;6.72;3.10;;;;;;;25.02;61.45;101320.94;5074832;28;20036;-77
2022/08/13 07:11:45;;;;;;;4.60;3.72;;;;;;;25.06;62.34;101325.94;5067611;28;20046;-77
2022/08/13 07:14:13;;;;;;;10.40;3.38;;;;;;;25.87;59.23;101324.38;5076370;28;20032;-78
2022/08/13 07:16:42;;;;;;;11.65;3.17;;;;;;;25.99;58.22;101327.44;5071215;28;20387;-77
2022/08/13 07:19:08;;;;;;;11.38;2.67;;;;;;;25.98;55.90;101326.59;5090226;28;20028;-77
2022/08/13 07:21:33;;;;;;;10.52;3.15;;;;;;;26.34;56.22;101325.38;5092233;28;20081;-77
2022/08/13 07:24:04;;;;;;;7.75;2.45;;;;;;;26.09;57.64;101322.31;5063043;28;20043;-77
2022/08/13 07:26:32;;;;;;;6.97;2.55;;;;;;;26.28;56.22;101329.03;5076561;28;20032;-77
2022/08/13 07:28:57;;;;;;;4.20;2.25;;;;;;;26.19;56.29;101325.56;5053904;28;20089;-77
2022/08/13 07:31:31;;;;;;;10.98;2.67;;;;;;;27.00;53.51;101328.38;5069291;28;20099;-77
2022/08/13 07:34:04;;;;;;;6.72;2.22;;;;;;;26.58;55.57;101326.66;5074895;28;20398;-77
2022/08/13 07:36:33;;;;;;;4.70;2.50;;;;;;;27.45;52.51;101326.56;5093081;28;20024;-77
2022/08/13 07:39:12;;;;;;;5.03;2.30;;;;;;;26.86;53.32;101327.53;5086694;28;20038;-77
2022/08/13 07:41:45;;;;;;;5.40;2.83;;;;;;;27.22;53.06;101329.84;5072513;28;20027;-77
2022/08/13 07:44:23;;;;;;;9.95;2.47;;;;;;;27.58;52.43;101327.56;5088701;28;20093;-80
2022/08/13 07:46:51;;;;;;;7.07;1.92;;;;;;;27.78;51.72;101325.53;5049027;28;20035;-80
2022/08/13 07:49:18;;;;;;;6.43;2.67;;;;;;;27.86;50.54;101324.44;5080040;28;20035;-79
2022/08/13 07:51:46;;;;;;;9.45;2.38;;;;;;;28.69;49.04;101325.38;5080651;28;20023;-80
2022/08/13 07:54:12;;;;;;;7.20;2.10;;;;;;;28.42;49.73;101329.25;5065028;28;20135;-81
2022/08/13 07:56:39;;;;;;;9.88;2.63;;;;;;;28.95;48.10;101325.13;5062674;28;20042;-78
2022/08/13 07:59:12;;;;;;;10.77;2.30;;;;;;;28.45;48.48;101335.53;5070454;28;20504;-80
2022/08/13 08:01:50;;;;;;;10.77;2.20;;;;;;;28.90;47.31;101336.25;5063103;28;20032;-80
2022/08/13 08:04:17;;;;;;;15.95;2.10;;;;;;;28.52;48.05;101334.38;5080304;28;20471;-79
2022/08/13 08:06:45;;;;;;;16.25;2.25;;;;;;;28.85;48.39;101335.22;5065328;28;20039;-79
2022/08/13 08:09:16;;;;;;;5.40;2.17;;;;;;;28.58;48.64;101339.16;5080106;28;20483;-81
2022/08/13 08:14:27;;;;;;;6.88;2.13;;;;;;;29.84;45.71;101344.56;5091302;28;20122;-80
2022/08/13 08:16:53;;;;;;;10.32;1.77;;;;;;;29.61;45.24;101347.19;5081368;28;20063;-80
2022/08/13 08:19:20;;;;;;;3.80;2.00;;;;;;;29.86;45.32;101338.63;5081073;28;20051;-80
2022/08/13 08:21:47;;;;;;;12.63;1.80;;;;;;;29.91;45.37;101337.91;5047965;28;20593;-80
2022/08/13 08:24:15;;;;;;;6.15;2.05;;;;;;;30.60;41.35;101346.91;5098148;28;20028;-78
2022/08/13 08:26:46;;;;;;;6.90;1.70;;;;;;;30.48;41.70;101335.56;5062986;28;20040;-80
2022/08/13 08:29:11;;;;;;;7.85;1.73;;;;;;;30.56;41.90;101346.50;5081428;28;20024;-80
2022/08/13 08:31:41;;;;;;;7.05;2.10;;;;;;;30.81;41.20;101342.59;5070800;28;20104;-78
2022/08/13 08:34:08;;;;;;;4.82;2.00;;;;;;;30.11;43.47;101337.66;5074639;28;20418;-80
2022/08/13 08:36:38;;;;;;;4.57;1.75;;;;;;;31.17;39.33;101339.81;5066243;28;20052;-79
2022/08/13 08:44:38;;;;;;;3.33;1.30;;;;;;;30.72;40.60;101338.44;5098154;28;20056;-78
2022/08/13 08:47:04;;;;;;;6.00;1.40;;;;;;;31.78;37.04;101335.53;5101209;28;20028;-79
2022/08/13 08:49:32;;;;;;;3.90;1.60;;;;;;;31.31;38.73;101344.94;5062798;28;20040;-79
2022/08/13 08:51:58;;;;;;;2.78;1.30;;;;;;;31.97;36.91;101344.66;5066015;28;20181;-81
2022/08/13 08:54:26;;;;;;;11.32;1.63;;;;;;;31.26;38.08;101342.00;5076021;28;20067;-79
2022/08/13 08:56:54;;;;;;;6.43;1.30;;;;;;;31.94;36.44;101347.16;5099192;28;20115;-80
2022/08/13 08:59:32;;;;;;;5.40;1.10;;;;;;;31.29;37.30;101337.84;5099064;28;20019;-79
2022/08/13 09:01:59;;;;;;;8.30;1.27;;;;;;;32.03;36.38;101345.66;5084604;28;20060;-79
2022/08/13 09:04:28;;;;;;;4.65;1.08;;;;;;;31.47;37.37;101331.16;5075155;28;20019;-80
2022/08/13 09:06:59;;;;;;;3.78;1.30;;;;;;;30.91;36.00;101342.88;5048807;28;20099;-81
2022/08/13 09:09:25;;;;;;;3.05;1.17;;;;;;;31.23;36.85;101331.19;5079029;28;20047;-80
2022/08/13 09:11:55;;;;;;;6.90;1.25;;;;;;;32.08;34.95;101336.41;5047998;28;20029;-79
2022/08/13 09:14:26;;;;;;;5.82;1.25;;;;;;;31.89;36.51;101328.06;5069965;28;20060;-80
2022/08/13 09:16:54;;;;;;;3.63;1.03;;;;;;;31.71;35.25;101326.28;5077796;28;20130;-79
2022/08/13 09:19:20;;;;;;;3.28;0.95;;;;;;;31.76;36.12;101334.03;5098682;28;20016;-79
2022/08/13 09:21:46;;;;;;;5.25;1.20;;;;;;;32.18;34.57;101337.47;5048741;28;20032;-79
2022/08/13 09:24:15;;;;;;;5.05;1.05;;;;;;;32.56;33.45;101323.66;5079300;28;20112;-79
2022/08/13 09:26:45;;;;;;;4.30;1.30;;;;;;;32.28;34.61;101339.63;5065238;28;20105;-79
2022/08/13 09:29:17;;;;;;;4.53;1.15;;;;;;;31.80;36.23;101326.78;5098729;28;20485;-80
2022/08/13 09:31:48;;;;;;;3.85;1.00;;;;;;;32.16;34.04;101330.34;5059412;28;20072;-80
2022/08/13 09:34:15;;;;;;;3.75;1.25;;;;;;;31.88;33.14;101323.53;5088728;28;20036;-80
2022/08/13 09:36:41;;;;;;;2.42;1.00;;;;;;;32.29;33.14;101313.00;5063460;28;20488;-81
2022/08/13 09:39:08;;;;;;;9.65;1.00;;;;;;;32.21;33.83;101327.59;5094748;28;21842;-79
2022/08/13 09:41:41;;;;;;;2.55;1.10;;;;;;;31.91;34.04;101319.31;5046437;28;20411;-80
2022/08/13 09:44:06;;;;;;;2.15;1.05;;;;;;;31.84;33.76;101323.16;5069520;28;20048;-80
2022/08/13 09:46:35;;;;;;;2.55;1.00;;;;;;;31.61;34.88;101317.59;5067251;28;20043;-81
2022/08/13 09:49:03;;;;;;;1.25;0.88;;;;;;;33.05;32.59;101309.72;5081131;28;20040;-81
2022/08/13 09:51:34;;;;;;;5.80;1.05;;;;;;;32.00;34.27;101324.34;5051400;28;20081;-80
2022/08/13 09:54:05;;;;;;;2.77;1.10;;;;;;;31.75;33.87;101313.38;5059299;28;20044;-81
2022/08/13 09:56:32;;;;;;;3.50;0.90;;;;;;;31.50;33.37;101308.88;5048766;28;20294;-80
2022/08/13 09:58:59;;;;;;;4.45;1.02;;;;;;;32.40;32.90;101309.25;5065016;28;20575;-80
2022/08/13 10:01:24;;;;;;;8.85;1.20;;;;;;;32.04;32.51;101299.19;5080881;28;20055;-79
2022/08/13 10:03:50;;;;;;;2.45;1.00;;;;;;;32.06;32.88;101302.63;5075898;28;20376;-80
2022/08/13 10:06:18;;;;;;;2.88;1.00;;;;;;;32.10;32.67;101298.19;5050144;28;20036;-81
2022/08/13 10:08:47;;;;;;;6.88;1.40;;;;;;;32.02;32.78;101305.09;5081592;28;20032;-80
2022/08/13 10:11:16;;;;;;;3.40;1.10;;;;;;;32.27;32.56;101298.25;5101965;28;20028;-80
2022/08/13 10:13:42;;;;;;;5.03;0.90;;;;;;;32.68;31.65;101298.09;5061583;28;20104;-80
2022/08/13 10:16:10;;;;;;;3.70;1.13;;;;;;;32.96;30.84;101297.97;5095291;28;20073;-82
2022/08/13 10:18:35;;;;;;;4.32;1.00;;;;;;;32.83;30.87;101286.13;5054545;28;20071;-81
2022/08/13 10:21:02;;;;;;;5.00;1.17;;;;;;;32.53;32.56;101295.81;5081855;28;20054;-82
2022/08/13 10:23:27;;;;;;;4.25;0.90;;;;;;;32.72;31.39;101285.97;5072815;28;20040;-82
2022/08/13 10:25:53;;;;;;;3.95;0.93;;;;;;;32.42;32.85;101281.50;5056118;28;20028;-81
2022/08/13 10:28:24;;;;;;;8.70;1.00;;;;;;;32.99;31.72;101273.88;5049782;28;20036;-83
2022/08/13 10:30:51;;;;;;;7.40;1.00;;;;;;;32.26;31.31;101287.16;5082225;28;20093;-81
2022/08/13 10:33:17;;;;;;;7.18;1.20;;;;;;;32.15;31.48;101284.13;5060091;28;20104;-82
2022/08/13 10:35:45;;;;;;;6.63;1.00;;;;;;;32.58;31.01;101281.72;5073108;28;20058;-80
2022/08/13 10:38:17;;;;;;;1.45;0.95;;;;;;;32.75;30.31;101279.78;5099924;28;20057;-81
2022/08/13 10:40:43;;;;;;;3.67;1.00;;;;;;;32.90;31.06;101272.63;5046045;28;20032;-82
2022/08/13 10:43:10;;;;;;;3.22;0.80;;;;;;;32.85;31.16;101272.56;5079727;28;20056;-83
2022/08/13 10:45:37;;;;;;;1.92;0.85;;;;;;;32.75;30.42;101279.78;5041701;28;20036;-81
2022/08/13 10:48:09;;;;;;;10.35;0.77;;;;;;;32.91;28.86;101280.00;5100643;28;20032;-82
2022/08/13 10:50:34;;;;;;;;;;;;;;;32.65;30.14;101271.13;5082391;28;20070;-82
2022/08/13 10:53:00;;;;;;;4.82;0.95;;;;;;;32.75;29.51;101264.75;5064578;28;19923;-81
2022/08/13 10:55:30;;;;;;;1.23;0.65;;;;;;;32.81;28.99;101268.50;5059461;28;20038;-81
2022/08/13 10:57:55;;;;;;;6.82;1.02;;;;;;;32.34;28.03;101276.25;5079452;28;20043;-80
2022/08/13 11:00:21;;;;;;;3.70;0.90;;;;;;;32.22;28.07;101266.94;5060686;28;20029;-80
2022/08/13 11:02:49;;;;;;;2.03;0.90;;;;;;;32.56;27.86;101259.31;5085401;28;20032;-80
2022/08/13 11:05:15;;;;;;;3.10;0.90;;;;;;;32.60;29.28;101254.84;5075169;28;20452;-81
2022/08/13 11:07:44;;;;;;;2.40;0.80;;;;;;;32.94;28.59;101263.34;5082435;28;20067;-80
2022/08/13 11:10:10;;;;;;;5.80;0.77;;;;;;;32.74;28.38;101261.03;5059783;28;20075;-79
2022/08/13 11:12:38;;;;;;;3.53;1.13;;;;;;;32.97;27.70;101265.63;5077376;28;20036;-81
2022/08/13 11:15:06;;;;;;;3.58;0.73;;;;;;;32.96;28.02;101257.41;5097042;28;20028;-80
2022/08/13 11:17:33;;;;;;;7.72;0.80;;;;;;;32.24;27.80;101264.75;5062956;28;20400;-79
2022/08/13 11:20:03;;;;;;;9.93;1.10;;;;;;;32.39;29.57;101253.66;5061572;28;20398;-79
2022/08/13 11:22:28;;;;;;;2.97;0.80;;;;;;;32.78;29.02;101256.56;5062660;28;20040;-79
2022/08/13 11:25:03;;;;;;;3.95;0.90;;;;;;;32.65;26.93;101258.91;5061705;28;20054;-80
2022/08/13 11:27:32;;;;;;;1.83;0.80;;;;;;;32.18;28.90;101243.94;5032517;28;20037;-79
2022/08/13 11:29:58;;;;;;;4.30;0.77;;;;;;;32.45;28.12;101253.72;5058139;28;20127;-80
2022/08/13 11:32:23;;;;;;;10.63;1.23;;;;;;;32.90;27.45;101244.25;5030145;28;20487;-80
2022/08/13 11:34:49;;;;;;;1.75;0.80;;;;;;;32.72;26.98;101243.41;5076581;28;20367;-80
2022/08/13 11:37:14;;;;;;;1.25;0.93;;;;;;;32.22;28.42;101244.28;5041879;28;20032;-81
2022/08/13 11:39:43;;;;;;;3.38;0.73;;;;;;;32.41;27.57;101245.75;5072657;28;20036;-80
2022/08/13 11:42:08;;;;;;;2.67;0.80;;;;;;;32.02;28.28;101231.44;5064443;28;20043;-81
2022/08/13 11:44:34;;;;;;;2.80;0.90;;;;;;;32.74;27.00;101234.66;5041439;28;20052;-81
2022/08/13 11:46:59;;;;;;;4.82;1.40;;;;;;;32.30;27.97;101238.19;5077967;28;20036;-79
2022/08/13 11:49:25;;;;;;;5.65;0.70;;;;;;;31.94;28.59;101233.84;5095125;28;20044;-80
2022/08/13 11:51:50;;;;;;;1.92;0.80;;;;;;;31.97;28.92;101228.50;5097968;28;20047;-80